createdAt,value
2017-01-06T00:00:05.270Z,99.99
2017-01-06T00:05:04.429Z,99.99
2017-01-06T00:10:04.748Z,99.99
2017-01-06T00:15:04.664Z,99.99
2017-01-06T00:20:04.579Z,99.99
2017-01-06T00:25:05.340Z,99.99
2017-01-06T00:30:05.225Z,99.99
2017-01-06T00:35:05.148Z,99.99
2017-01-06T00:40:05.503Z,99.99
2017-01-06T00:45:04.452Z,99.99
2017-01-06T00:50:04.428Z,99.99
2017-01-06T01:00:05.175Z,99.99
2017-01-06T01:05:04.964Z,99.99
2017-01-06T01:10:05.142Z,99.99
2017-01-06T01:15:05.173Z,99.99
2017-01-06T01:20:05.208Z,99.99
2017-01-06T01:25:05.171Z,99.99
2017-01-06T01:30:05.095Z,99.99
2017-01-06T01:35:04.957Z,99.99
2017-01-06T01:40:04.907Z,99.99
2017-01-06T01:45:04.966Z,99.99
2017-01-06T01:50:05.031Z,99.99
2017-01-06T01:55:04.918Z,99.99
2017-01-06T02:00:04.671Z,99.99
2017-01-06T02:05:05.331Z,99.99
2017-01-06T02:10:04.512Z,99.99
2017-01-06T02:15:05.333Z,99.99
2017-01-06T02:20:04.591Z,99.99
2017-01-06T02:25:04.528Z,99.99
2017-01-06T02:30:04.514Z,99.99
2017-01-06T02:35:05.312Z,99.99
2017-01-06T02:40:04.476Z,99.99
2017-01-06T02:45:04.516Z,99.99
2017-01-06T02:50:04.699Z,99.99
2017-01-06T02:55:04.747Z,99.99
2017-01-06T03:00:05.172Z,99.99
2017-01-06T03:05:09.688Z,99.99
2017-01-06T03:10:04.635Z,99.99
2017-01-06T03:15:04.598Z,99.99
2017-01-06T03:20:05.013Z,99.99
2017-01-06T03:25:04.878Z,99.99
2017-01-06T03:30:04.829Z,99.99
2017-01-06T03:35:04.775Z,99.99
2017-01-06T03:40:04.959Z,99.99
2017-01-06T03:45:04.947Z,99.99
2017-01-06T03:50:04.565Z,99.99
2017-01-06T03:55:05.272Z,99.99
2017-01-06T04:00:05.783Z,99.99
2017-01-06T04:05:06.093Z,99.99
2017-01-06T04:10:04.887Z,99.99
2017-01-06T04:15:04.806Z,99.99
2017-01-06T04:20:04.801Z,99.99
2017-01-06T04:25:04.730Z,99.99
2017-01-06T04:30:05.372Z,99.99
2017-01-06T04:35:04.449Z,99.99
2017-01-06T04:40:04.627Z,99.99
2017-01-06T04:45:04.533Z,99.99
2017-01-06T04:50:04.602Z,99.99
2017-01-06T04:55:04.490Z,99.99
2017-01-06T05:00:05.622Z,99.99
2017-01-06T05:05:04.688Z,99.99
2017-01-06T05:10:05.080Z,99.99
2017-01-06T05:15:05.251Z,99.99
2017-01-06T05:20:05.395Z,99.99
2017-01-06T05:25:04.455Z,99.99
2017-01-06T05:30:04.695Z,99.99
2017-01-06T05:35:04.688Z,99.99
2017-01-06T05:40:05.001Z,99.99
2017-01-06T05:45:05.155Z,99.99
2017-01-06T05:50:05.067Z,99.99
2017-01-06T05:55:04.933Z,99.99
2017-01-06T06:00:04.933Z,99.99
2017-01-06T06:05:04.902Z,99.99
2017-01-06T06:10:05.316Z,99.99
2017-01-06T06:15:05.457Z,99.99
2017-01-06T06:20:05.371Z,99.99
2017-01-06T06:25:05.542Z,99.99
2017-01-06T06:30:05.591Z,99.99
2017-01-06T06:35:04.716Z,99.99
2017-01-06T06:40:04.849Z,99.99
2017-01-06T06:45:04.870Z,99.99
2017-01-06T06:50:04.829Z,99.99
2017-01-06T06:55:04.664Z,99.99
2017-01-06T07:00:04.580Z,99.99
2017-01-06T07:05:04.412Z,99.99
2017-01-06T07:10:04.719Z,99.99
2017-01-06T07:15:04.793Z,99.99
2017-01-06T07:20:04.944Z,99.99
2017-01-06T07:25:04.844Z,99.99
2017-01-06T07:30:04.715Z,99.99
2017-01-06T07:35:04.773Z,99.99
2017-01-06T07:40:04.698Z,99.99
2017-01-06T07:45:04.483Z,99.99
2017-01-06T07:50:04.538Z,99.99
2017-01-06T07:55:05.191Z,99.99
2017-01-06T08:00:05.007Z,99.99
2017-01-06T08:05:05.152Z,99.99
2017-01-06T08:10:05.321Z,99.99
2017-01-06T08:15:05.186Z,99.99
2017-01-06T08:20:05.235Z,99.99
2017-01-06T08:25:05.173Z,99.99
2017-01-06T08:30:05.341Z,99.99
2017-01-06T08:35:05.187Z,99.99
2017-01-06T08:40:05.330Z,99.99
2017-01-06T08:45:04.286Z,99.99
2017-01-06T08:50:04.419Z,99.99
2017-01-06T08:55:05.215Z,99.99
2017-01-06T09:00:05.134Z,99.99
2017-01-06T09:05:05.063Z,99.99
2017-01-06T09:10:05.083Z,99.99
2017-01-06T09:15:04.980Z,99.99
2017-01-06T09:20:04.965Z,99.99
2017-01-06T09:25:04.977Z,99.99
2017-01-06T09:30:04.907Z,99.99
2017-01-06T09:35:04.874Z,99.99
2017-01-06T09:40:04.973Z,99.99
2017-01-06T09:45:05.154Z,99.99
2017-01-06T09:50:05.034Z,99.99
2017-01-06T09:55:04.884Z,99.99
2017-01-06T10:00:04.676Z,99.99
2017-01-06T10:05:04.795Z,99.99
2017-01-06T10:10:05.101Z,99.99
2017-01-06T10:15:05.072Z,99.99
2017-01-06T10:20:05.006Z,99.99
2017-01-06T10:25:04.811Z,99.99
2017-01-06T10:30:04.670Z,99.99
2017-01-06T10:35:04.507Z,99.57
2017-01-06T10:40:04.872Z,99.33
2017-01-06T10:45:04.695Z,99.2
2017-01-06T10:50:04.649Z,94.51
2017-01-06T10:55:04.560Z,94.98
2017-01-06T11:00:05.419Z,96.55
2017-01-06T11:05:05.403Z,94.93
2017-01-06T11:10:04.547Z,93.89
2017-01-06T11:15:04.488Z,92.38
2017-01-06T11:20:04.596Z,93.04
2017-01-06T11:25:05.449Z,92.66
2017-01-06T11:30:05.490Z,89.58
2017-01-06T11:35:04.679Z,86.54
2017-01-06T11:40:04.792Z,87.2
2017-01-06T11:45:04.865Z,81.94
2017-01-06T11:50:04.611Z,85.08
2017-01-06T11:55:04.467Z,88.07
2017-01-06T12:00:05.349Z,87.59
2017-01-06T12:05:05.367Z,85.31
2017-01-06T12:10:04.822Z,85.21
2017-01-06T12:15:04.917Z,82.88
2017-01-06T12:20:05.236Z,78.47
2017-01-06T12:25:05.269Z,80.14
2017-01-06T12:30:05.087Z,79.76
2017-01-06T12:35:05.283Z,79.66
2017-01-06T12:40:05.270Z,78.81
2017-01-06T12:45:05.347Z,78.96
2017-01-06T12:50:04.333Z,79.47
2017-01-06T12:55:04.560Z,79.25
2017-01-06T13:00:04.597Z,78.67
2017-01-06T13:05:04.770Z,79.91
2017-01-06T13:10:05.179Z,79.53
2017-01-06T13:15:05.023Z,79.63
2017-01-06T13:20:04.966Z,80.62
2017-01-06T13:25:04.979Z,77.64
2017-01-06T13:30:05.281Z,78.45
2017-01-06T13:35:05.138Z,80.11
2017-01-06T13:40:05.288Z,81.95
2017-01-06T13:45:05.115Z,79.96
2017-01-06T13:50:06.163Z,81.29
2017-01-06T13:55:04.540Z,80.72
2017-01-06T14:00:04.743Z,80.96
2017-01-06T14:05:04.825Z,81.34
2017-01-06T14:10:04.347Z,82.01
2017-01-06T14:15:04.922Z,81.92
2017-01-06T14:20:05.039Z,82.57
2017-01-06T14:25:05.029Z,82.48
2017-01-06T14:30:04.645Z,83.24
2017-01-06T14:35:04.553Z,83.14
2017-01-06T14:40:04.549Z,83.29
2017-01-06T14:45:05.567Z,84.33
2017-01-06T14:50:12.130Z,84.52
2017-01-06T14:55:14.989Z,85.8
2017-01-06T15:00:18.240Z,86.94
2017-01-06T15:05:15.389Z,88.41
2017-01-06T15:10:14.510Z,89.73
2017-01-06T15:15:22.018Z,89.73
2017-01-06T15:20:15.382Z,89.64
2017-01-06T15:25:15.184Z,90.06
2017-01-06T15:30:15.800Z,90.54
2017-01-06T15:35:17.221Z,91.39
2017-01-06T15:40:16.143Z,91.96
2017-01-06T15:45:13.371Z,92.94
2017-01-06T15:50:05.331Z,94.18
2017-01-06T15:55:04.498Z,95.03
2017-01-06T16:00:05.375Z,96.73
2017-01-06T16:05:05.267Z,97.29
2017-01-06T16:10:04.677Z,98.61
2017-01-06T16:15:04.546Z,99.18
2017-01-06T16:20:04.408Z,99.99
2017-01-06T16:25:04.416Z,99.99
2017-01-06T16:30:04.444Z,99.99
2017-01-06T16:35:05.502Z,99.99
2017-01-06T16:40:04.886Z,99.99
2017-01-06T16:45:04.827Z,99.99
2017-01-06T16:50:04.839Z,99.99
2017-01-06T16:55:04.742Z,99.99
2017-01-06T17:00:04.771Z,99.99
2017-01-06T17:05:05.263Z,99.99
2017-01-06T17:10:04.598Z,99.99
2017-01-06T17:15:04.457Z,99.99
2017-01-06T17:20:04.463Z,99.99
2017-01-06T17:25:05.142Z,99.99
2017-01-06T17:30:05.029Z,99.99
2017-01-06T17:35:05.283Z,99.99
2017-01-06T17:40:04.612Z,99.99
2017-01-06T17:45:04.626Z,99.99
2017-01-06T17:50:04.759Z,99.99
2017-01-06T17:55:04.879Z,99.99
2017-01-06T18:00:04.875Z,99.99
2017-01-06T18:05:04.667Z,99.99
2017-01-06T18:10:05.836Z,99.99
2017-01-06T18:15:05.606Z,99.99
2017-01-06T18:20:04.387Z,99.99
2017-01-06T18:25:05.046Z,99.99
2017-01-06T18:30:05.775Z,99.99
2017-01-06T18:35:04.837Z,99.99
2017-01-06T18:40:04.464Z,99.99
2017-01-06T18:45:04.785Z,99.99
2017-01-06T18:50:04.948Z,99.99
2017-01-06T18:55:05.179Z,99.99
2017-01-06T19:00:05.159Z,99.99
2017-01-06T19:05:04.944Z,99.99
2017-01-06T19:10:07.158Z,99.99
2017-01-06T19:15:07.127Z,99.99
2017-01-06T19:20:07.274Z,99.99
2017-01-06T19:25:07.471Z,99.99
2017-01-06T19:30:05.978Z,99.99
2017-01-06T19:35:07.488Z,99.99
2017-01-06T19:40:06.870Z,99.99
2017-01-06T19:45:06.165Z,99.99
2017-01-06T19:50:06.674Z,99.99
2017-01-06T19:55:06.634Z,99.99
2017-01-06T20:00:06.450Z,99.99
2017-01-06T20:05:07.051Z,99.99
2017-01-06T20:10:06.225Z,99.99
2017-01-06T20:15:06.875Z,99.99
2017-01-06T20:20:06.576Z,99.99
2017-01-06T20:25:06.180Z,99.99
2017-01-06T20:30:05.899Z,99.99
2017-01-06T20:35:08.517Z,99.99
2017-01-06T20:40:06.642Z,99.99
2017-01-06T20:45:06.500Z,99.99
2017-01-06T20:50:06.008Z,99.99
2017-01-06T20:55:06.457Z,99.99
2017-01-06T21:00:06.197Z,99.99
2017-01-06T21:05:06.455Z,99.99
2017-01-06T21:10:05.812Z,99.99
2017-01-06T21:15:06.669Z,99.99
2017-01-06T21:20:06.168Z,99.99
2017-01-06T21:25:06.833Z,99.99
2017-01-06T21:30:06.388Z,99.99
2017-01-06T21:35:06.744Z,99.99
2017-01-06T21:40:06.033Z,99.99
2017-01-06T21:45:06.540Z,99.99
2017-01-06T21:50:05.997Z,99.99
2017-01-06T21:55:06.621Z,99.99
2017-01-06T22:00:06.143Z,99.99
2017-01-06T22:05:06.822Z,99.99
2017-01-06T22:10:06.732Z,99.99
2017-01-06T22:15:06.370Z,99.99
2017-01-06T22:20:06.086Z,99.99
2017-01-06T22:25:06.256Z,99.99
2017-01-06T22:30:06.608Z,99.99
2017-01-06T22:35:06.043Z,99.99
2017-01-06T22:40:06.061Z,99.99
2017-01-06T22:45:06.581Z,99.99
2017-01-06T22:50:06.893Z,99.99
2017-01-06T22:55:06.240Z,99.99
2017-01-06T23:00:06.472Z,99.99
2017-01-06T23:05:06.020Z,99.99
2017-01-06T23:10:06.491Z,99.99
2017-01-06T23:15:06.269Z,99.99
2017-01-06T23:20:06.625Z,99.99
2017-01-06T23:25:05.963Z,99.99
2017-01-06T23:30:06.021Z,99.99
2017-01-06T23:35:06.577Z,99.99
2017-01-06T23:40:06.334Z,99.99
2017-01-06T23:45:06.219Z,99.99
2017-01-06T23:50:06.260Z,99.99
2017-01-06T23:55:06.625Z,99.99
